LNY Airport (Lanai) Information

FAA: LNY - ICAO: PHNY

LNY Airport Location

State Hawaii
County Maui
City Lanai City
LNY Airport is 3 miles southwest of Lanai City, HI.
Latitude 20-47-08.2000N
Longitude 156-57-05.1050W
Elevation 1,308ft

PHNY Airport METARs

METAR PHNY 200456Z AUTO 04017KT 10SM CLR 21/19 A3009 RMK AO2 SLP169 T02060194
Altimeter 30.09"
Temperature 20.6°C (69.1°F)
Wind 40° at 17KT
Clouds Skies are clear.
Visibility 10.0mi
Time observed: 2021-10-20T04:56:00Z

LNY Airport Details

Status Operational
Activation September 1946
Ownership Public
Usage Public
Chart HAWAIIAN ISLANDS
ATC on-site No
Beacon schedule N/A
Beacon color clear green

LNY Airport Contacts

Owner HAWAII ST ARPTS DIV
Owner address HONOLULU INTL ARPT, HONOLULU, HI 96819
Owner phone 808-836-6432
Manager HOLLY W FLY
Manager address 1000 WESTLINE ROAD, WILDORADO, TX 79098
Manager phone 806-282-1263

LNY Airport (Lanai) Radio Frequencies

LNY (Airport) Radio Frequencies

UNICOM N/A
Common traffic advisory frequency (CTAF) 122.9